sensor_id;sensor_type;location;lat;lon;timestamp;temperature;humidity
54264;DHT22;40178;53.042;6.406;2022-12-07T00:01:14;2.30;99.90
54264;DHT22;40178;53.042;6.406;2022-12-07T00:03:42;2.40;99.90
54264;DHT22;40178;53.042;6.406;2022-12-07T00:06:09;2.30;99.90
54264;DHT22;40178;53.042;6.406;2022-12-07T00:08:35;2.40;99.90
54264;DHT22;40178;53.042;6.406;2022-12-07T00:11:07;2.40;99.90
54264;DHT22;40178;53.042;6.406;2022-12-07T00:13:33;2.40;99.90
54264;DHT22;40178;53.042;6.406;2022-12-07T00:16:05;2.40;99.90
54264;DHT22;40178;53.042;6.406;2022-12-07T00:18:31;2.30;99.90
54264;DHT22;40178;53.042;6.406;2022-12-07T00:21:02;2.30;99.90
54264;DHT22;40178;53.042;6.406;2022-12-07T00:23:28;2.30;99.90
54264;DHT22;40178;53.042;6.406;2022-12-07T00:25:53;2.30;99.90
54264;DHT22;40178;53.042;6.406;2022-12-07T00:28:19;2.30;99.90
54264;DHT22;40178;53.042;6.406;2022-12-07T00:30:44;2.40;99.90
54264;DHT22;40178;53.042;6.406;2022-12-07T00:33:10;2.20;99.90
54264;DHT22;40178;53.042;6.406;2022-12-07T00:35:35;2.30;99.90
54264;DHT22;40178;53.042;6.406;2022-12-07T00:38:01;2.30;99.90
54264;DHT22;40178;53.042;6.406;2022-12-07T00:40:26;2.20;99.90
54264;DHT22;40178;53.042;6.406;2022-12-07T00:42:52;2.20;99.90
54264;DHT22;40178;53.042;6.406;2022-12-07T00:45:18;2.30;99.90
54264;DHT22;40178;53.042;6.406;2022-12-07T00:47:43;2.30;99.90
54264;DHT22;40178;53.042;6.406;2022-12-07T00:50:09;2.40;99.90
54264;DHT22;40178;53.042;6.406;2022-12-07T00:52:34;3.00;99.90
54264;DHT22;40178;53.042;6.406;2022-12-07T00:55:00;2.30;99.90
54264;DHT22;40178;53.042;6.406;2022-12-07T00:57:25;2.30;99.90
54264;DHT22;40178;53.042;6.406;2022-12-07T00:59:51;2.40;99.90
54264;DHT22;40178;53.042;6.406;2022-12-07T01:02:21;2.40;99.90
54264;DHT22;40178;53.042;6.406;2022-12-07T01:04:46;2.30;99.90
54264;DHT22;40178;53.042;6.406;2022-12-07T01:07:12;2.40;99.90
54264;DHT22;40178;53.042;6.406;2022-12-07T01:09:37;2.30;99.90
54264;DHT22;40178;53.042;6.406;2022-12-07T01:12:03;2.20;99.90
54264;DHT22;40178;53.042;6.406;2022-12-07T01:14:29;2.20;99.90
54264;DHT22;40178;53.042;6.406;2022-12-07T01:16:54;2.20;99.90
54264;DHT22;40178;53.042;6.406;2022-12-07T01:19:20;2.20;99.90
54264;DHT22;40178;53.042;6.406;2022-12-07T01:21:45;2.30;99.90
54264;DHT22;40178;53.042;6.406;2022-12-07T01:24:11;2.40;99.90
54264;DHT22;40178;53.042;6.406;2022-12-07T01:26:37;2.40;99.90
54264;DHT22;40178;53.042;6.406;2022-12-07T01:29:03;2.30;99.90
54264;DHT22;40178;53.042;6.406;2022-12-07T01:31:29;2.40;99.90
54264;DHT22;40178;53.042;6.406;2022-12-07T01:33:57;2.50;99.90
54264;DHT22;40178;53.042;6.406;2022-12-07T01:36:31;2.60;99.90
54264;DHT22;40178;53.042;6.406;2022-12-07T01:38:59;2.70;99.90
54264;DHT22;40178;53.042;6.406;2022-12-07T01:41:28;2.60;99.90
54264;DHT22;40178;53.042;6.406;2022-12-07T01:46:50;2.90;99.90
54264;DHT22;40178;53.042;6.406;2022-12-07T01:49:33;2.80;99.90
54264;DHT22;40178;53.042;6.406;2022-12-07T01:52:28;3.00;99.90
54264;DHT22;40178;53.042;6.406;2022-12-07T01:55:00;2.90;99.90
54264;DHT22;40178;53.042;6.406;2022-12-07T01:57:27;2.90;99.90
54264;DHT22;40178;53.042;6.406;2022-12-07T01:59:53;2.90;99.90
54264;DHT22;40178;53.042;6.406;2022-12-07T02:02:31;3.00;99.90
54264;DHT22;40178;53.042;6.406;2022-12-07T02:05:00;2.80;99.90
54264;DHT22;40178;53.042;6.406;2022-12-07T02:07:27;2.80;99.90
54264;DHT22;40178;53.042;6.406;2022-12-07T02:09:53;2.80;99.90
54264;DHT22;40178;53.042;6.406;2022-12-07T02:12:19;2.80;99.90
54264;DHT22;40178;53.042;6.406;2022-12-07T02:14:45;2.60;99.90
54264;DHT22;40178;53.042;6.406;2022-12-07T02:17:19;2.60;99.90
54264;DHT22;40178;53.042;6.406;2022-12-07T02:28:36;2.60;99.90
54264;DHT22;40178;53.042;6.406;2022-12-07T02:31:08;2.60;99.90
54264;DHT22;40178;53.042;6.406;2022-12-07T02:33:41;2.70;99.90
54264;DHT22;40178;53.042;6.406;2022-12-07T02:36:12;2.70;99.90
54264;DHT22;40178;53.042;6.406;2022-12-07T02:41:26;2.70;99.90
54264;DHT22;40178;53.042;6.406;2022-12-07T02:44:05;2.70;99.90
54264;DHT22;40178;53.042;6.406;2022-12-07T02:46:41;2.60;99.90
54264;DHT22;40178;53.042;6.406;2022-12-07T02:49:08;2.80;99.90
54264;DHT22;40178;53.042;6.406;2022-12-07T02:51:39;2.70;99.90
54264;DHT22;40178;53.042;6.406;2022-12-07T02:54:11;2.70;99.90
54264;DHT22;40178;53.042;6.406;2022-12-07T03:10:59;2.80;99.90
54264;DHT22;40178;53.042;6.406;2022-12-07T03:13:48;2.70;99.90
54264;DHT22;40178;53.042;6.406;2022-12-07T03:16:42;2.70;99.90
54264;DHT22;40178;53.042;6.406;2022-12-07T03:19:13;2.60;99.90
54264;DHT22;40178;53.042;6.406;2022-12-07T03:21:42;2.50;99.90
54264;DHT22;40178;53.042;6.406;2022-12-07T03:24:17;2.60;99.90
54264;DHT22;40178;53.042;6.406;2022-12-07T03:26:48;2.60;99.90
54264;DHT22;40178;53.042;6.406;2022-12-07T03:29:22;2.70;99.90
54264;DHT22;40178;53.042;6.406;2022-12-07T03:31:55;2.70;99.90
54264;DHT22;40178;53.042;6.406;2022-12-07T03:34:38;2.90;99.90
54264;DHT22;40178;53.042;6.406;2022-12-07T03:37:10;2.60;99.90
54264;DHT22;40178;53.042;6.406;2022-12-07T03:40:17;2.60;99.90
54264;DHT22;40178;53.042;6.406;2022-12-07T03:42:45;2.80;99.90
54264;DHT22;40178;53.042;6.406;2022-12-07T03:45:12;2.80;99.90
54264;DHT22;40178;53.042;6.406;2022-12-07T03:47:47;2.70;99.90
54264;DHT22;40178;53.042;6.406;2022-12-07T03:50:44;2.60;99.90
54264;DHT22;40178;53.042;6.406;2022-12-07T03:53:18;2.80;99.90
54264;DHT22;40178;53.042;6.406;2022-12-07T03:55:46;2.80;99.90
54264;DHT22;40178;53.042;6.406;2022-12-07T03:58:19;2.60;99.90
54264;DHT22;40178;53.042;6.406;2022-12-07T04:00:47;2.70;99.90
54264;DHT22;40178;53.042;6.406;2022-12-07T04:03:14;2.50;99.90
54264;DHT22;40178;53.042;6.406;2022-12-07T04:05:39;2.50;99.90
54264;DHT22;40178;53.042;6.406;2022-12-07T04:08:06;2.40;99.90
54264;DHT22;40178;53.042;6.406;2022-12-07T04:10:31;2.50;99.90
54264;DHT22;40178;53.042;6.406;2022-12-07T04:12:57;2.40;99.90
54264;DHT22;40178;53.042;6.406;2022-12-07T04:15:23;2.30;99.90
54264;DHT22;40178;53.042;6.406;2022-12-07T04:17:49;2.30;99.90
54264;DHT22;40178;53.042;6.406;2022-12-07T04:20:14;2.30;99.90
54264;DHT22;40178;53.042;6.406;2022-12-07T04:22:40;2.40;99.90
54264;DHT22;40178;53.042;6.406;2022-12-07T04:25:06;2.50;99.90
54264;DHT22;40178;53.042;6.406;2022-12-07T04:27:31;2.70;99.90
54264;DHT22;40178;53.042;6.406;2022-12-07T04:29:57;2.60;99.90
54264;DHT22;40178;53.042;6.406;2022-12-07T04:32:23;2.50;99.90
54264;DHT22;40178;53.042;6.406;2022-12-07T04:34:49;2.50;99.90
54264;DHT22;40178;53.042;6.406;2022-12-07T04:37:15;2.40;99.90
54264;DHT22;40178;53.042;6.406;2022-12-07T04:39:41;2.30;99.90
54264;DHT22;40178;53.042;6.406;2022-12-07T04:42:06;2.40;99.90
54264;DHT22;40178;53.042;6.406;2022-12-07T04:44:32;2.30;99.90
54264;DHT22;40178;53.042;6.406;2022-12-07T04:46:57;2.30;99.90
54264;DHT22;40178;53.042;6.406;2022-12-07T04:49:24;2.30;99.90
54264;DHT22;40178;53.042;6.406;2022-12-07T04:51:50;2.30;99.90
54264;DHT22;40178;53.042;6.406;2022-12-07T04:54:16;2.30;99.90
54264;DHT22;40178;53.042;6.406;2022-12-07T04:56:42;2.20;99.90
54264;DHT22;40178;53.042;6.406;2022-12-07T04:59:13;2.10;99.90
54264;DHT22;40178;53.042;6.406;2022-12-07T05:01:39;2.10;99.90
54264;DHT22;40178;53.042;6.406;2022-12-07T05:04:04;1.90;99.90
54264;DHT22;40178;53.042;6.406;2022-12-07T05:06:30;1.90;99.90
54264;DHT22;40178;53.042;6.406;2022-12-07T05:08:56;1.90;99.90
54264;DHT22;40178;53.042;6.406;2022-12-07T05:11:21;1.80;99.90
54264;DHT22;40178;53.042;6.406;2022-12-07T05:14:17;1.60;99.90
54264;DHT22;40178;53.042;6.406;2022-12-07T05:16:45;1.50;99.90
54264;DHT22;40178;53.042;6.406;2022-12-07T05:19:11;1.60;99.90
54264;DHT22;40178;53.042;6.406;2022-12-07T05:21:37;1.70;99.90
54264;DHT22;40178;53.042;6.406;2022-12-07T05:24:03;1.50;99.90
54264;DHT22;40178;53.042;6.406;2022-12-07T05:26:29;1.50;99.90
54264;DHT22;40178;53.042;6.406;2022-12-07T05:28:56;1.70;99.90
54264;DHT22;40178;53.042;6.406;2022-12-07T05:31:23;1.50;99.90
54264;DHT22;40178;53.042;6.406;2022-12-07T05:33:49;1.70;99.90
54264;DHT22;40178;53.042;6.406;2022-12-07T05:36:14;1.70;99.90
54264;DHT22;40178;53.042;6.406;2022-12-07T05:38:40;1.70;99.90
54264;DHT22;40178;53.042;6.406;2022-12-07T05:41:07;1.60;99.90
54264;DHT22;40178;53.042;6.406;2022-12-07T05:43:53;1.50;99.90
54264;DHT22;40178;53.042;6.406;2022-12-07T05:46:18;1.70;99.90
54264;DHT22;40178;53.042;6.406;2022-12-07T05:48:44;1.60;99.90
54264;DHT22;40178;53.042;6.406;2022-12-07T05:51:09;1.60;99.90
54264;DHT22;40178;53.042;6.406;2022-12-07T05:53:35;1.60;99.90
54264;DHT22;40178;53.042;6.406;2022-12-07T05:56:01;1.70;99.90
54264;DHT22;40178;53.042;6.406;2022-12-07T05:58:26;1.80;99.90
54264;DHT22;40178;53.042;6.406;2022-12-07T06:01:10;1.80;99.90
54264;DHT22;40178;53.042;6.406;2022-12-07T06:03:35;2.00;99.90
54264;DHT22;40178;53.042;6.406;2022-12-07T06:06:01;2.30;99.90
54264;DHT22;40178;53.042;6.406;2022-12-07T06:08:27;2.20;99.90
54264;DHT22;40178;53.042;6.406;2022-12-07T06:10:52;2.40;99.90
54264;DHT22;40178;53.042;6.406;2022-12-07T06:13:38;2.40;99.90
54264;DHT22;40178;53.042;6.406;2022-12-07T06:16:03;2.30;99.90
54264;DHT22;40178;53.042;6.406;2022-12-07T06:18:29;2.50;99.90
54264;DHT22;40178;53.042;6.406;2022-12-07T06:20:55;2.30;99.90
54264;DHT22;40178;53.042;6.406;2022-12-07T06:23:20;2.40;99.90
54264;DHT22;40178;53.042;6.406;2022-12-07T06:25:46;2.30;99.90
54264;DHT22;40178;53.042;6.406;2022-12-07T06:28:11;2.30;99.90
54264;DHT22;40178;53.042;6.406;2022-12-07T06:30:37;2.30;99.90
54264;DHT22;40178;53.042;6.406;2022-12-07T06:33:03;2.20;99.90
54264;DHT22;40178;53.042;6.406;2022-12-07T06:35:28;2.30;99.90
54264;DHT22;40178;53.042;6.406;2022-12-07T06:37:54;2.30;99.90
54264;DHT22;40178;53.042;6.406;2022-12-07T06:40:19;2.20;99.90
54264;DHT22;40178;53.042;6.406;2022-12-07T06:42:45;2.40;99.90
54264;DHT22;40178;53.042;6.406;2022-12-07T06:45:10;2.50;99.90
54264;DHT22;40178;53.042;6.406;2022-12-07T06:47:36;2.70;99.90
54264;DHT22;40178;53.042;6.406;2022-12-07T06:50:02;2.50;99.90
54264;DHT22;40178;53.042;6.406;2022-12-07T06:52:28;2.50;99.90
54264;DHT22;40178;53.042;6.406;2022-12-07T06:54:53;2.60;99.90
54264;DHT22;40178;53.042;6.406;2022-12-07T06:57:19;2.40;99.90
54264;DHT22;40178;53.042;6.406;2022-12-07T06:59:45;2.30;99.90
54264;DHT22;40178;53.042;6.406;2022-12-07T07:02:11;2.30;99.90
54264;DHT22;40178;53.042;6.406;2022-12-07T07:04:37;2.40;99.90
54264;DHT22;40178;53.042;6.406;2022-12-07T07:07:02;2.30;99.90
54264;DHT22;40178;53.042;6.406;2022-12-07T07:09:28;2.10;99.90
54264;DHT22;40178;53.042;6.406;2022-12-07T07:11:53;2.10;99.90
54264;DHT22;40178;53.042;6.406;2022-12-07T07:14:19;2.00;99.90
54264;DHT22;40178;53.042;6.406;2022-12-07T07:16:46;2.10;99.90
54264;DHT22;40178;53.042;6.406;2022-12-07T07:19:12;2.00;99.90
54264;DHT22;40178;53.042;6.406;2022-12-07T07:21:37;2.10;99.90
54264;DHT22;40178;53.042;6.406;2022-12-07T07:24:03;2.10;99.90
54264;DHT22;40178;53.042;6.406;2022-12-07T07:26:28;1.80;99.90
54264;DHT22;40178;53.042;6.406;2022-12-07T07:28:55;2.00;99.90
54264;DHT22;40178;53.042;6.406;2022-12-07T07:31:21;1.70;99.90
54264;DHT22;40178;53.042;6.406;2022-12-07T07:33:46;2.00;99.90
54264;DHT22;40178;53.042;6.406;2022-12-07T07:36:12;1.80;99.90
54264;DHT22;40178;53.042;6.406;2022-12-07T07:38:38;1.60;99.90
54264;DHT22;40178;53.042;6.406;2022-12-07T07:41:03;1.60;99.90
54264;DHT22;40178;53.042;6.406;2022-12-07T07:43:29;1.70;99.90
54264;DHT22;40178;53.042;6.406;2022-12-07T07:45:55;1.70;99.90
54264;DHT22;40178;53.042;6.406;2022-12-07T07:48:20;1.50;99.90
54264;DHT22;40178;53.042;6.406;2022-12-07T07:50:48;1.50;99.90
54264;DHT22;40178;53.042;6.406;2022-12-07T07:53:13;1.60;99.90
54264;DHT22;40178;53.042;6.406;2022-12-07T07:55:39;1.40;99.90
54264;DHT22;40178;53.042;6.406;2022-12-07T07:58:04;1.40;99.90
54264;DHT22;40178;53.042;6.406;2022-12-07T08:00:30;1.40;99.90
54264;DHT22;40178;53.042;6.406;2022-12-07T08:02:56;1.30;99.90
54264;DHT22;40178;53.042;6.406;2022-12-07T08:05:21;1.40;99.90
54264;DHT22;40178;53.042;6.406;2022-12-07T08:07:47;1.40;99.90
54264;DHT22;40178;53.042;6.406;2022-12-07T08:10:13;1.30;99.90
54264;DHT22;40178;53.042;6.406;2022-12-07T08:12:40;1.60;99.90
54264;DHT22;40178;53.042;6.406;2022-12-07T08:15:30;1.60;99.90
54264;DHT22;40178;53.042;6.406;2022-12-07T08:17:56;1.60;99.90
54264;DHT22;40178;53.042;6.406;2022-12-07T08:20:22;1.70;99.90
54264;DHT22;40178;53.042;6.406;2022-12-07T08:22:47;2.10;99.90
54264;DHT22;40178;53.042;6.406;2022-12-07T08:25:13;2.00;99.90
54264;DHT22;40178;53.042;6.406;2022-12-07T08:27:38;2.20;99.90
54264;DHT22;40178;53.042;6.406;2022-12-07T08:30:05;2.40;99.90
54264;DHT22;40178;53.042;6.406;2022-12-07T08:32:30;2.10;99.90
54264;DHT22;40178;53.042;6.406;2022-12-07T08:34:56;2.20;99.90
54264;DHT22;40178;53.042;6.406;2022-12-07T08:37:21;2.00;99.90
54264;DHT22;40178;53.042;6.406;2022-12-07T08:39:47;2.10;99.90
54264;DHT22;40178;53.042;6.406;2022-12-07T08:42:13;1.90;99.90
54264;DHT22;40178;53.042;6.406;2022-12-07T08:44:38;1.90;99.90
54264;DHT22;40178;53.042;6.406;2022-12-07T08:47:06;2.00;99.90
54264;DHT22;40178;53.042;6.406;2022-12-07T08:49:37;1.70;99.90
54264;DHT22;40178;53.042;6.406;2022-12-07T08:52:04;1.70;99.90
54264;DHT22;40178;53.042;6.406;2022-12-07T08:54:31;1.60;99.90
54264;DHT22;40178;53.042;6.406;2022-12-07T08:56:59;1.70;99.90
54264;DHT22;40178;53.042;6.406;2022-12-07T08:59:24;2.00;99.90
54264;DHT22;40178;53.042;6.406;2022-12-07T09:01:50;2.10;99.90
54264;DHT22;40178;53.042;6.406;2022-12-07T09:04:16;2.00;99.90
54264;DHT22;40178;53.042;6.406;2022-12-07T09:06:42;2.00;99.90
54264;DHT22;40178;53.042;6.406;2022-12-07T09:09:08;2.50;99.90
54264;DHT22;40178;53.042;6.406;2022-12-07T09:11:34;2.60;99.90
54264;DHT22;40178;53.042;6.406;2022-12-07T09:14:00;2.50;99.90
54264;DHT22;40178;53.042;6.406;2022-12-07T09:16:25;2.70;99.90
54264;DHT22;40178;53.042;6.406;2022-12-07T09:18:51;3.00;99.90
54264;DHT22;40178;53.042;6.406;2022-12-07T09:21:16;3.10;99.90
54264;DHT22;40178;53.042;6.406;2022-12-07T09:23:42;2.90;99.90
54264;DHT22;40178;53.042;6.406;2022-12-07T09:26:08;3.10;99.90
54264;DHT22;40178;53.042;6.406;2022-12-07T09:28:34;3.20;99.90
54264;DHT22;40178;53.042;6.406;2022-12-07T09:30:59;3.10;99.90
54264;DHT22;40178;53.042;6.406;2022-12-07T09:33:25;3.10;99.90
54264;DHT22;40178;53.042;6.406;2022-12-07T09:35:51;3.00;99.90
54264;DHT22;40178;53.042;6.406;2022-12-07T09:38:18;3.30;99.90
54264;DHT22;40178;53.042;6.406;2022-12-07T09:40:44;3.20;99.90
54264;DHT22;40178;53.042;6.406;2022-12-07T09:43:19;3.10;99.90
54264;DHT22;40178;53.042;6.406;2022-12-07T09:45:47;3.10;99.90
54264;DHT22;40178;53.042;6.406;2022-12-07T09:48:18;3.30;99.90
54264;DHT22;40178;53.042;6.406;2022-12-07T09:50:47;3.10;99.90
54264;DHT22;40178;53.042;6.406;2022-12-07T09:53:25;3.20;99.90
54264;DHT22;40178;53.042;6.406;2022-12-07T09:55:52;3.20;99.90
54264;DHT22;40178;53.042;6.406;2022-12-07T09:58:24;3.30;99.90
54264;DHT22;40178;53.042;6.406;2022-12-07T10:01:13;3.20;99.90
54264;DHT22;40178;53.042;6.406;2022-12-07T10:03:42;3.20;99.90
54264;DHT22;40178;53.042;6.406;2022-12-07T10:06:11;3.30;99.90
54264;DHT22;40178;53.042;6.406;2022-12-07T10:08:38;3.30;99.90
54264;DHT22;40178;53.042;6.406;2022-12-07T10:11:04;3.10;99.90
54264;DHT22;40178;53.042;6.406;2022-12-07T10:13:43;3.20;99.90
54264;DHT22;40178;53.042;6.406;2022-12-07T10:16:40;3.40;99.90
54264;DHT22;40178;53.042;6.406;2022-12-07T10:19:27;3.30;99.90
54264;DHT22;40178;53.042;6.406;2022-12-07T10:22:11;3.60;99.90
54264;DHT22;40178;53.042;6.406;2022-12-07T10:24:41;3.80;99.90
54264;DHT22;40178;53.042;6.406;2022-12-07T10:27:31;3.70;99.90
54264;DHT22;40178;53.042;6.406;2022-12-07T10:29:58;3.80;99.90
54264;DHT22;40178;53.042;6.406;2022-12-07T10:32:36;4.00;99.90
54264;DHT22;40178;53.042;6.406;2022-12-07T10:35:28;3.80;99.90
54264;DHT22;40178;53.042;6.406;2022-12-07T10:37:58;3.90;99.90
54264;DHT22;40178;53.042;6.406;2022-12-07T10:43:05;3.90;99.90
54264;DHT22;40178;53.042;6.406;2022-12-07T10:45:30;4.00;99.90
54264;DHT22;40178;53.042;6.406;2022-12-07T10:48:33;3.90;99.90
54264;DHT22;40178;53.042;6.406;2022-12-07T10:51:31;4.10;99.90
54264;DHT22;40178;53.042;6.406;2022-12-07T10:54:30;4.20;99.90
54264;DHT22;40178;53.042;6.406;2022-12-07T10:57:10;4.20;99.90
54264;DHT22;40178;53.042;6.406;2022-12-07T11:11:04;4.50;99.90
54264;DHT22;40178;53.042;6.406;2022-12-07T11:13:53;4.60;99.90
54264;DHT22;40178;53.042;6.406;2022-12-07T11:16:36;4.60;99.90
54264;DHT22;40178;53.042;6.406;2022-12-07T11:30:02;4.90;99.90
54264;DHT22;40178;53.042;6.406;2022-12-07T11:33:09;5.00;99.90
54264;DHT22;40178;53.042;6.406;2022-12-07T11:38:55;5.00;99.90
54264;DHT22;40178;53.042;6.406;2022-12-07T11:41:31;5.10;99.90
54264;DHT22;40178;53.042;6.406;2022-12-07T11:49:40;5.10;99.90
54264;DHT22;40178;53.042;6.406;2022-12-07T11:52:30;5.10;99.90
54264;DHT22;40178;53.042;6.406;2022-12-07T11:54:58;5.20;99.90
54264;DHT22;40178;53.042;6.406;2022-12-07T11:57:46;5.20;99.90
54264;DHT22;40178;53.042;6.406;2022-12-07T12:00:17;5.30;99.90
54264;DHT22;40178;53.042;6.406;2022-12-07T12:02:52;5.40;99.90
54264;DHT22;40178;53.042;6.406;2022-12-07T12:05:21;5.40;99.90
54264;DHT22;40178;53.042;6.406;2022-12-07T12:08:03;5.40;99.90
54264;DHT22;40178;53.042;6.406;2022-12-07T12:16:57;5.50;99.90
54264;DHT22;40178;53.042;6.406;2022-12-07T12:19:32;5.50;99.90
54264;DHT22;40178;53.042;6.406;2022-12-07T12:22:28;5.50;99.90
54264;DHT22;40178;53.042;6.406;2022-12-07T12:24:56;5.50;99.90
54264;DHT22;40178;53.042;6.406;2022-12-07T12:27:29;5.50;99.90
54264;DHT22;40178;53.042;6.406;2022-12-07T12:29:59;5.40;99.90
54264;DHT22;40178;53.042;6.406;2022-12-07T12:32:44;5.40;99.90
54264;DHT22;40178;53.042;6.406;2022-12-07T12:35:36;5.30;99.90
54264;DHT22;40178;53.042;6.406;2022-12-07T12:38:48;5.20;99.90
54264;DHT22;40178;53.042;6.406;2022-12-07T12:46:59;4.80;99.90
54264;DHT22;40178;53.042;6.406;2022-12-07T12:52:45;4.60;99.90
54264;DHT22;40178;53.042;6.406;2022-12-07T12:55:19;4.40;99.90
54264;DHT22;40178;53.042;6.406;2022-12-07T13:00:31;3.90;99.90
54264;DHT22;40178;53.042;6.406;2022-12-07T13:02:58;3.80;99.90
54264;DHT22;40178;53.042;6.406;2022-12-07T13:05:31;3.70;99.90
54264;DHT22;40178;53.042;6.406;2022-12-07T13:08:02;3.70;99.90
54264;DHT22;40178;53.042;6.406;2022-12-07T13:10:32;3.70;99.90
54264;DHT22;40178;53.042;6.406;2022-12-07T13:28:51;3.90;99.90
54264;DHT22;40178;53.042;6.406;2022-12-07T13:33:48;3.60;99.90
54264;DHT22;40178;53.042;6.406;2022-12-07T13:36:37;3.70;99.90
54264;DHT22;40178;53.042;6.406;2022-12-07T13:39:18;3.70;99.90
54264;DHT22;40178;53.042;6.406;2022-12-07T13:41:48;3.60;99.90
54264;DHT22;40178;53.042;6.406;2022-12-07T13:44:17;3.60;99.90
54264;DHT22;40178;53.042;6.406;2022-12-07T13:46:49;3.60;99.90
54264;DHT22;40178;53.042;6.406;2022-12-07T13:49:29;3.50;99.90
54264;DHT22;40178;53.042;6.406;2022-12-07T13:52:13;3.50;99.90
54264;DHT22;40178;53.042;6.406;2022-12-07T13:55:15;3.50;99.90
54264;DHT22;40178;53.042;6.406;2022-12-07T13:57:41;3.50;99.90
54264;DHT22;40178;53.042;6.406;2022-12-07T14:03:04;3.50;99.90
54264;DHT22;40178;53.042;6.406;2022-12-07T14:05:47;3.50;99.90
54264;DHT22;40178;53.042;6.406;2022-12-07T14:08:30;3.40;99.90
54264;DHT22;40178;53.042;6.406;2022-12-07T14:10:57;3.40;99.90
54264;DHT22;40178;53.042;6.406;2022-12-07T14:13:35;3.40;99.90
54264;DHT22;40178;53.042;6.406;2022-12-07T14:16:03;3.40;99.90
54264;DHT22;40178;53.042;6.406;2022-12-07T14:18:40;3.40;99.90
54264;DHT22;40178;53.042;6.406;2022-12-07T14:23:40;3.50;99.90
54264;DHT22;40178;53.042;6.406;2022-12-07T14:26:19;3.40;99.90
54264;DHT22;40178;53.042;6.406;2022-12-07T14:28:45;3.30;99.90
54264;DHT22;40178;53.042;6.406;2022-12-07T14:31:14;3.40;99.90
54264;DHT22;40178;53.042;6.406;2022-12-07T14:33:40;3.40;99.90
54264;DHT22;40178;53.042;6.406;2022-12-07T14:36:09;3.30;99.90
54264;DHT22;40178;53.042;6.406;2022-12-07T14:38:34;3.50;99.90
54264;DHT22;40178;53.042;6.406;2022-12-07T14:41:00;3.40;99.90
54264;DHT22;40178;53.042;6.406;2022-12-07T14:43:44;3.50;99.90
54264;DHT22;40178;53.042;6.406;2022-12-07T14:46:09;3.50;99.90
54264;DHT22;40178;53.042;6.406;2022-12-07T14:48:35;3.50;99.90
54264;DHT22;40178;53.042;6.406;2022-12-07T14:51:01;3.50;99.90
54264;DHT22;40178;53.042;6.406;2022-12-07T14:53:35;3.60;99.90
54264;DHT22;40178;53.042;6.406;2022-12-07T14:56:01;3.50;99.90
54264;DHT22;40178;53.042;6.406;2022-12-07T14:58:27;3.50;99.90
54264;DHT22;40178;53.042;6.406;2022-12-07T15:00:52;3.60;99.90
54264;DHT22;40178;53.042;6.406;2022-12-07T15:03:18;3.70;99.90
54264;DHT22;40178;53.042;6.406;2022-12-07T15:05:44;3.70;99.90
54264;DHT22;40178;53.042;6.406;2022-12-07T15:08:12;3.70;99.90
54264;DHT22;40178;53.042;6.406;2022-12-07T15:10:38;3.60;99.90
54264;DHT22;40178;53.042;6.406;2022-12-07T15:13:05;3.70;99.90
54264;DHT22;40178;53.042;6.406;2022-12-07T15:15:52;3.70;99.90
54264;DHT22;40178;53.042;6.406;2022-12-07T15:18:18;3.70;99.90
54264;DHT22;40178;53.042;6.406;2022-12-07T15:20:45;3.60;99.90
54264;DHT22;40178;53.042;6.406;2022-12-07T15:23:11;3.60;99.90
54264;DHT22;40178;53.042;6.406;2022-12-07T15:25:40;3.50;99.90
54264;DHT22;40178;53.042;6.406;2022-12-07T15:28:06;3.50;99.90
54264;DHT22;40178;53.042;6.406;2022-12-07T15:30:32;3.40;99.90
54264;DHT22;40178;53.042;6.406;2022-12-07T15:32:57;3.40;99.90
54264;DHT22;40178;53.042;6.406;2022-12-07T15:35:23;3.30;99.90
54264;DHT22;40178;53.042;6.406;2022-12-07T15:37:48;3.40;99.90
54264;DHT22;40178;53.042;6.406;2022-12-07T15:40:14;3.30;99.90
54264;DHT22;40178;53.042;6.406;2022-12-07T15:42:40;3.20;99.90
54264;DHT22;40178;53.042;6.406;2022-12-07T15:45:07;3.20;99.90
54264;DHT22;40178;53.042;6.406;2022-12-07T15:47:36;3.10;99.90
54264;DHT22;40178;53.042;6.406;2022-12-07T15:50:04;3.10;99.90
54264;DHT22;40178;53.042;6.406;2022-12-07T15:52:31;3.00;99.90
54264;DHT22;40178;53.042;6.406;2022-12-07T15:54:56;3.10;99.90
54264;DHT22;40178;53.042;6.406;2022-12-07T15:57:22;3.00;99.90
54264;DHT22;40178;53.042;6.406;2022-12-07T15:59:48;3.00;99.90
54264;DHT22;40178;53.042;6.406;2022-12-07T16:02:13;3.50;99.90
54264;DHT22;40178;53.042;6.406;2022-12-07T16:04:39;3.00;99.90
54264;DHT22;40178;53.042;6.406;2022-12-07T16:07:05;3.10;99.90
54264;DHT22;40178;53.042;6.406;2022-12-07T16:09:31;3.00;99.90
54264;DHT22;40178;53.042;6.406;2022-12-07T16:11:56;3.00;99.90
54264;DHT22;40178;53.042;6.406;2022-12-07T16:14:22;3.00;99.90
54264;DHT22;40178;53.042;6.406;2022-12-07T16:16:48;2.90;99.90
54264;DHT22;40178;53.042;6.406;2022-12-07T16:19:13;2.90;99.90
54264;DHT22;40178;53.042;6.406;2022-12-07T16:21:39;2.90;99.90
54264;DHT22;40178;53.042;6.406;2022-12-07T16:24:06;3.00;99.90
54264;DHT22;40178;53.042;6.406;2022-12-07T16:26:32;3.00;99.90
54264;DHT22;40178;53.042;6.406;2022-12-07T16:28:57;3.00;99.90
54264;DHT22;40178;53.042;6.406;2022-12-07T16:31:25;3.00;99.90
54264;DHT22;40178;53.042;6.406;2022-12-07T16:33:53;3.00;99.90
54264;DHT22;40178;53.042;6.406;2022-12-07T16:36:19;2.90;99.90
54264;DHT22;40178;53.042;6.406;2022-12-07T16:38:47;2.90;99.90
54264;DHT22;40178;53.042;6.406;2022-12-07T16:41:13;3.00;99.90
54264;DHT22;40178;53.042;6.406;2022-12-07T16:43:39;2.90;99.90
54264;DHT22;40178;53.042;6.406;2022-12-07T16:46:05;3.00;99.90
54264;DHT22;40178;53.042;6.406;2022-12-07T16:48:31;2.80;99.90
54264;DHT22;40178;53.042;6.406;2022-12-07T16:51:03;3.00;99.90
54264;DHT22;40178;53.042;6.406;2022-12-07T16:53:29;3.00;99.90
54264;DHT22;40178;53.042;6.406;2022-12-07T16:55:54;3.00;99.90
54264;DHT22;40178;53.042;6.406;2022-12-07T16:58:20;2.90;99.90
54264;DHT22;40178;53.042;6.406;2022-12-07T17:00:45;3.00;99.90
54264;DHT22;40178;53.042;6.406;2022-12-07T17:03:11;2.90;99.90
54264;DHT22;40178;53.042;6.406;2022-12-07T17:05:41;3.50;99.90
54264;DHT22;40178;53.042;6.406;2022-12-07T17:08:08;3.00;99.90
54264;DHT22;40178;53.042;6.406;2022-12-07T17:10:37;2.90;99.90
54264;DHT22;40178;53.042;6.406;2022-12-07T17:13:03;2.80;99.90
54264;DHT22;40178;53.042;6.406;2022-12-07T17:16:01;2.80;99.90
54264;DHT22;40178;53.042;6.406;2022-12-07T17:18:29;2.70;99.90
54264;DHT22;40178;53.042;6.406;2022-12-07T17:20:55;2.70;99.90
54264;DHT22;40178;53.042;6.406;2022-12-07T17:23:21;2.70;99.90
54264;DHT22;40178;53.042;6.406;2022-12-07T17:25:47;2.60;99.90
54264;DHT22;40178;53.042;6.406;2022-12-07T17:28:13;2.70;99.90
54264;DHT22;40178;53.042;6.406;2022-12-07T17:30:38;2.60;99.90
54264;DHT22;40178;53.042;6.406;2022-12-07T17:33:04;2.60;99.90
54264;DHT22;40178;53.042;6.406;2022-12-07T17:35:30;2.60;99.90
54264;DHT22;40178;53.042;6.406;2022-12-07T17:37:55;2.60;99.90
54264;DHT22;40178;53.042;6.406;2022-12-07T17:40:21;2.50;99.90
54264;DHT22;40178;53.042;6.406;2022-12-07T17:42:47;2.60;99.90
54264;DHT22;40178;53.042;6.406;2022-12-07T17:45:15;2.60;99.90